Kezdőlap
METAR-TAF:

METAR-TAF

Repülőterek :

Harkov, Ukrajna

földrajzi szélesség: 49-58N, földrajzi hosszúság: 036-08E, magasság: 154 m

Jelenlegi meteorológiai megfigyelések

A jelentés 29 perccel ezelõtt készült, 13:30 UTC
Északi szél 8 kt, észak-északnyugati és észak-északkeleti között változik
Hőmérséklet 33°C
Páratartalom 21%
Légköri nyomás 1015 hPa
Látótávolság 10 km, vagy több
felhőtlen 1500 m magasságban, és nincs gomolyfelhõ

METAR: UKHH 161330Z 36004MPS 330V030 CAVOK 33/08 Q1015 R25/0///72 NOSIG

Idő: 16:59 (13:59 UTC)

Előrejelzés

A jelentés 2 órával és 49 perccel ezelõtt készült, 11:10 UTC
Az előrejelzés 16-én 12 óra UTC és 16-én 21 óra UTC között érvényes
Nyugat-délnyugati szél 6 kt
Látótávolság 10 km, vagy több
felhőtlen 1500 m magasságban, és nincs gomolyfelhõ

TAF: UKHH 161110Z 1612/1621 25003MPS CAVOK TX35/1613Z TN26/1621Z

Meteorológiai megfigyelések és előrejelzések több, mint 4000 repülőtéren (METAR és TAF jelentéseket).

A térképen piros és sárga pontok jelzik az elérhető meteorológiai állomásokat.

Mozgassa az egeret a pont fölött, hogy megjelenjen az állomás neve.

Azután kattintson az időjárási megfigyelések és előrejelzések megtekintéséhez.

A térkép megváltoztatása: kattintson a fekete keresztel jelölt zöld gombra ráközelítéshez, a vonallal jelölt zöld gombra távolításhoz, vagy a zöld nyilakra a szomszédos térképek eléréséhez.


METAR-TAF: